Řízení letového provozu České republiky
Letiste: LKPD Aktualizace: 26.05.2019 23:00:25  UTC
 METAR LKPD 26.05. 23:00 ...
METAR LKPD 262300Z 00000KT CAVOK 15/11 Q1011 RMK BLU=
 TAF LKPD 26.05. 17:00 ...
TAF LKPD 261700Z 2618/2718 26004KT CAVOK      PROB30 TEMPO 2712/2716 26016KT SHRA SCT030TCU=